Time;durP1;ratioP1;P1;durP2;ratioP2;P2;SDS_P1;SDS_P2;PMS_P1;PMS_P2;Temp;Humidity;BMP_temperature;BMP_pressure;BME280_temperature;BME280_humidity;BME280_pressure;Samples;Min_cycle;Max_cycle;Signal;HPM_P1;HPM_P2
2023/10/15 00:00:31;;;;;;;12.10;6.50;;;;;;;16.00;68.19;98574.56;107251;1257;67912;-38
2023/10/15 00:02:59;;;;;;;17.90;6.40;;;;;;;15.99;68.27;98581.14;107219;1261;72657;-37
2023/10/15 00:05:27;;;;;;;13.60;6.40;;;;;;;15.97;68.42;98581.73;107256;1257;60332;-37
2023/10/15 00:07:57;;;;;;;20.40;7.00;;;;;;;15.94;68.46;98580.52;107229;1257;60306;-37
2023/10/15 00:10:26;;;;;;;14.70;6.40;;;;;;;15.92;68.60;98576.34;107181;1257;73866;-37
2023/10/15 00:12:55;;;;;;;16.80;6.30;;;;;;;15.95;68.63;98578.70;107291;1257;67656;-37
2023/10/15 00:15:23;;;;;;;17.10;6.30;;;;;;;15.98;68.56;98574.45;107185;1256;72660;-37
2023/10/15 00:17:53;;;;;;;15.20;6.80;;;;;;;15.95;68.81;98574.57;107225;1257;60411;-37
2023/10/15 00:20:23;;;;;;;11.00;6.10;;;;;;;15.91;68.98;98578.53;107251;1257;59849;-37
2023/10/15 00:22:51;;;;;;;13.90;6.50;;;;;;;15.87;69.18;98576.65;107186;1256;73904;-37
2023/10/15 00:25:21;;;;;;;20.50;6.90;;;;;;;15.84;69.42;98572.55;107207;1262;66993;-37
2023/10/15 00:27:54;;;;;;;18.10;6.80;;;;;;;15.87;69.43;98573.21;107222;1257;72691;-37
2023/10/15 00:30:31;;;;;;;13.70;6.60;;;;;;;15.86;69.48;98569.63;107201;1257;60403;-38
2023/10/15 00:33:03;;;;;;;20.00;6.90;;;;;;;15.84;69.61;98571.68;107015;1257;60363;-37
2023/10/15 00:35:35;;;;;;;14.50;6.60;;;;;;;15.81;69.81;98572.44;107257;1257;72876;-37
2023/10/15 00:38:16;;;;;;;16.80;6.10;;;;;;;15.79;69.93;98568.16;107022;1257;67620;-37
2023/10/15 00:41:00;;;;;;;20.00;6.50;;;;;;;15.84;69.99;98567.40;107095;1260;72638;-38
2023/10/15 00:43:28;;;;;;;18.90;6.90;;;;;;;15.88;69.91;98567.09;107216;1260;60646;-37
2023/10/15 00:45:59;;;;;;;19.40;7.20;;;;;;;15.87;70.07;98561.89;107041;1256;60374;-38
2023/10/15 00:48:36;;;;;;;15.20;6.60;;;;;;;15.84;70.11;98560.90;107055;1257;73870;-37
2023/10/15 00:51:10;;;;;;;13.70;6.60;;;;;;;15.81;70.32;98559.48;107193;1257;67665;-38
2023/10/15 00:53:47;;;;;;;18.90;6.10;;;;;;;15.81;70.41;98554.17;107091;1257;71799;-38
2023/10/15 00:56:20;;;;;;;16.30;6.40;;;;;;;15.84;70.35;98548.88;107209;1257;60464;-38
2023/10/15 01:03:53;;;;;;;18.30;6.60;;;;;;;15.78;70.62;98552.32;107229;1257;67656;-38
2023/10/15 01:06:30;;;;;;;12.90;6.10;;;;;;;15.75;70.74;98549.42;107211;1257;72706;-38
2023/10/15 01:09:49;;;;;;;17.70;6.00;;;;;;;15.77;70.78;98549.16;107268;1257;60520;-38
2023/10/15 01:11:51;;;;;;;13.30;7.30;;;;;;;15.77;70.84;98548.53;107151;1257;60526;-38
2023/10/15 01:14:31;;;;;;;12.50;6.20;;;;;;;15.73;71.07;98548.44;107244;1257;73854;-38
2023/10/15 01:17:02;;;;;;;13.50;6.20;;;;;;;15.67;71.23;98552.35;107061;1257;66605;-38
2023/10/15 01:19:34;;;;;;;12.60;6.00;;;;;;;15.60;71.54;98552.67;107180;1257;72667;-37
2023/10/15 01:22:18;;;;;;;16.20;5.50;;;;;;;15.59;71.65;98550.02;107201;1260;60451;-38
2023/10/15 01:24:53;;;;;;;13.50;5.70;;;;;;;15.61;71.56;98547.66;107198;1257;60418;-38
2023/10/15 01:27:28;;;;;;;14.40;6.40;;;;;;;15.59;71.68;98542.84;107191;1257;73893;-37
2023/10/15 01:29:58;;;;;;;12.00;6.00;;;;;;;15.53;71.86;98544.13;107231;1261;66636;-38
2023/10/15 01:32:26;;;;;;;22.60;6.10;;;;;;;15.46;72.02;98543.79;107068;1257;72719;-38
2023/10/15 01:34:55;;;;;;;13.10;6.10;;;;;;;15.39;72.27;98544.83;107068;1264;60440;-38
2023/10/15 01:39:52;;;;;;;14.30;6.20;;;;;;;15.39;72.49;98538.52;107102;1257;73890;-38
2023/10/15 01:45:16;;;;;;;11.40;6.40;;;;;;;15.29;72.73;98543.26;107235;1258;72991;-38
2023/10/15 01:50:26;;;;;;;16.20;6.40;;;;;;;15.20;73.16;98539.46;107234;1257;60606;-38
2023/10/15 01:53:01;;;;;;;12.70;5.90;;;;;;;15.22;73.08;98534.13;107250;1262;74037;-38
2023/10/15 01:55:35;;;;;;;15.10;5.60;;;;;;;15.22;73.27;98535.38;107249;1258;67703;-38
2023/10/15 01:58:10;;;;;;;15.20;6.10;;;;;;;15.17;73.52;98536.52;107247;1257;72661;-38
2023/10/15 02:03:10;;;;;;;9.50;5.40;;;;;;;15.08;74.03;98538.44;107524;1254;60371;-38
2023/10/15 02:05:42;;;;;;;12.60;5.90;;;;;;;15.11;74.02;98545.27;107540;1254;72582;-38
2023/10/15 02:08:25;;;;;;;14.30;6.00;;;;;;;15.14;73.98;98546.88;107486;1253;65308;-38
2023/10/15 02:10:53;;;;;;;18.60;6.50;;;;;;;15.10;74.07;98545.36;107507;1254;72727;-37
2023/10/15 02:13:26;;;;;;;14.10;6.40;;;;;;;15.05;74.27;98543.09;107492;1254;60099;-38
2023/10/15 02:15:55;;;;;;;12.70;6.10;;;;;;;15.02;74.35;98540.85;107473;1252;60431;-38
2023/10/15 02:18:29;;;;;;;;;;;;;;;15.01;74.47;98541.80;107530;1259;73839;-38
2023/10/15 02:23:25;;;;;;;13.10;5.80;;;;;;;15.04;74.37;98532.56;107503;1260;72647;-38
2023/10/15 02:25:57;;;;;;;15.30;6.20;;;;;;;15.02;74.68;98527.13;107530;1254;60369;-38
2023/10/15 02:28:27;;;;;;;12.10;6.00;;;;;;;14.98;74.89;98526.40;107546;1254;60437;-38
2023/10/15 02:33:34;;;;;;;11.70;5.60;;;;;;;14.91;75.14;98527.16;107501;1254;67576;-37
2023/10/15 02:36:09;;;;;;;14.00;5.50;;;;;;;14.95;75.06;98523.70;107502;1254;72680;-38
2023/10/15 02:38:38;;;;;;;13.50;5.90;;;;;;;14.99;75.14;98527.95;107339;1259;60532;-38
2023/10/15 02:41:06;;;;;;;13.80;6.30;;;;;;;14.96;75.32;98525.02;107524;1252;60559;-38
2023/10/15 02:43:46;;;;;;;11.80;6.00;;;;;;;14.91;75.66;98518.77;107510;1254;73831;-38
2023/10/15 02:46:24;;;;;;;15.30;6.20;;;;;;;14.83;76.01;98518.30;107495;1253;67564;-38
2023/10/15 02:48:55;;;;;;;9.00;5.60;;;;;;;14.81;76.28;98521.22;107506;1252;72682;-38
2023/10/15 02:51:26;;;;;;;11.40;6.20;;;;;;;14.82;76.43;98519.34;107507;1254;60287;-37
2023/10/15 02:54:09;;;;;;;11.90;5.80;;;;;;;14.78;76.57;98520.70;107522;1255;60042;-37
2023/10/15 02:56:37;;;;;;;17.50;7.00;;;;;;;14.77;76.81;98522.66;107412;1253;169657;-37
2023/10/15 02:59:51;;;;;;;10.80;5.00;;;;;;;14.78;76.90;98517.60;104334;1290;601054;-37
2023/10/15 03:02:20;;;;;;;10.80;5.60;;;;;;;14.79;76.72;98518.44;106613;1266;60490;-37
2023/10/15 03:04:56;;;;;;;15.40;5.70;;;;;;;14.81;76.75;98514.52;106700;1266;60426;-37
2023/10/15 03:07:30;;;;;;;13.40;6.20;;;;;;;14.77;76.92;98518.23;106551;1267;72243;-37
2023/10/15 03:09:58;;;;;;;10.80;6.60;;;;;;;14.67;77.22;98514.67;106702;1267;67570;-37
2023/10/15 03:12:25;;;;;;;11.80;5.70;;;;;;;14.60;77.55;98509.22;106640;1267;178859;-37
2023/10/15 03:14:53;;;;;;;10.10;5.90;;;;;;;14.62;77.51;98511.77;106865;1264;61688;-37
2023/10/15 03:17:24;;;;;;;11.40;6.00;;;;;;;14.65;77.34;98511.43;106875;1264;60025;-37
2023/10/15 03:19:54;;;;;;;11.20;5.90;;;;;;;14.66;77.30;98512.27;106914;1264;72234;-37
2023/10/15 03:22:30;;;;;;;11.90;6.80;;;;;;;14.65;77.22;98511.27;106924;1262;66285;-37
2023/10/15 03:24:59;;;;;;;13.10;6.50;;;;;;;14.57;77.25;98510.66;106874;1264;71549;-38
2023/10/15 03:27:27;;;;;;;11.00;5.70;;;;;;;14.49;77.50;98514.55;106934;1263;61659;-37
2023/10/15 03:29:56;;;;;;;17.40;6.20;;;;;;;14.52;77.34;98509.86;106875;1263;59987;-37
2023/10/15 03:32:31;;;;;;;14.90;6.20;;;;;;;14.53;77.23;98505.63;106900;1263;73060;-37
2023/10/15 03:35:07;;;;;;;11.50;6.40;;;;;;;14.42;77.51;98507.38;106908;1263;67540;-37
2023/10/15 03:37:45;;;;;;;15.80;6.90;;;;;;;14.33;77.85;98493.89;106904;1264;72667;-37
2023/10/15 03:40:38;;;;;;;12.90;6.30;;;;;;;14.25;78.01;98489.14;106866;1267;60387;-37
2023/10/15 03:43:06;;;;;;;14.70;6.20;;;;;;;14.22;78.11;98492.45;106881;1263;60021;-37
2023/10/15 03:45:50;;;;;;;;;;;;;;;14.19;78.31;98497.45;106918;1262;74106;-37
2023/10/15 03:48:21;;;;;;;11.10;6.30;;;;;;;14.10;78.78;98496.38;106802;1263;68125;-37
2023/10/15 03:50:55;;;;;;;12.40;6.60;;;;;;;14.04;79.06;98490.38;106843;1264;73073;-36
2023/10/15 03:53:31;;;;;;;12.00;5.80;;;;;;;13.98;79.35;98491.80;106852;1264;61786;-36
2023/10/15 03:56:01;;;;;;;12.20;5.90;;;;;;;13.97;79.48;98496.65;106849;1264;60156;-37
2023/10/15 03:58:31;;;;;;;18.40;6.80;;;;;;;13.98;79.58;98496.48;106889;1263;73025;-37
2023/10/15 04:03:50;;;;;;;12.10;6.60;;;;;;;13.93;79.67;98498.39;106743;1264;72707;-36
2023/10/15 04:06:19;;;;;;;11.30;5.70;;;;;;;13.88;79.79;98498.29;106743;1264;60410;-37
2023/10/15 04:09:09;;;;;;;11.90;5.50;;;;;;;13.91;79.64;98496.06;106757;1264;60035;-37
2023/10/15 04:11:43;;;;;;;11.70;6.10;;;;;;;13.94;79.47;98495.98;106907;1261;73150;-37
2023/10/15 04:14:46;;;;;;;19.40;6.50;;;;;;;13.87;79.51;98495.55;106969;1261;67884;-37
2023/10/15 04:17:06;;;;;;;17.10;6.60;;;;;;;13.83;79.68;98505.94;106910;1265;72130;-37
2023/10/15 04:19:36;;;;;;;13.60;5.90;;;;;;;13.76;79.75;98509.58;106981;1261;61695;-37
2023/10/15 04:22:13;;;;;;;16.10;6.30;;;;;;;13.73;79.66;98505.41;106923;1260;60082;-37
2023/10/15 04:24:42;;;;;;;15.10;6.70;;;;;;;13.74;79.72;98505.71;106933;1261;73437;-37
2023/10/15 04:27:18;;;;;;;14.40;6.40;;;;;;;13.73;79.95;98507.11;106859;1262;66083;-37
2023/10/15 04:29:55;;;;;;;15.50;6.70;;;;;;;13.71;80.07;98501.98;106927;1263;72657;-37
2023/10/15 04:32:29;;;;;;;14.00;6.70;;;;;;;13.70;79.94;98509.08;106841;1266;60782;-37
2023/10/15 04:35:11;;;;;;;14.10;6.00;;;;;;;13.76;79.65;98509.50;106876;1265;59212;-37
2023/10/15 04:37:39;;;;;;;9.30;6.30;;;;;;;13.80;79.59;98512.04;106940;1260;73085;-37
2023/10/15 04:40:12;;;;;;;13.60;6.70;;;;;;;13.80;79.57;98516.02;106912;1261;68358;-37
2023/10/15 04:42:48;;;;;;;15.00;6.80;;;;;;;13.80;79.48;98522.06;106920;1261;72638;-37
2023/10/15 04:45:23;;;;;;;15.00;6.60;;;;;;;13.79;79.26;98524.91;106903;1261;60476;-37
2023/10/15 04:47:53;;;;;;;14.20;5.80;;;;;;;13.82;78.91;98526.20;106954;1262;59762;-37
2023/10/15 04:50:26;;;;;;;12.50;6.00;;;;;;;13.80;78.81;98527.14;106923;1260;72993;-37
2023/10/15 04:53:02;;;;;;;13.60;6.60;;;;;;;13.75;78.85;98529.91;106909;1260;66154;-37
2023/10/15 04:55:30;;;;;;;13.00;6.20;;;;;;;13.71;79.05;98534.13;107037;1262;72654;-37
2023/10/15 04:57:57;;;;;;;19.00;6.50;;;;;;;13.68;79.01;98536.18;106882;1260;60473;-38
2023/10/15 05:00:25;;;;;;;15.00;5.90;;;;;;;13.71;78.93;98537.95;106904;1265;58787;-37
2023/10/15 05:02:53;;;;;;;18.40;6.70;;;;;;;13.76;78.74;98540.16;106895;1260;73027;-37
2023/10/15 05:05:21;;;;;;;17.70;6.90;;;;;;;13.74;78.70;98541.27;106924;1260;67573;-37
2023/10/15 05:07:48;;;;;;;11.90;6.80;;;;;;;13.69;78.90;98539.83;106881;1261;72675;-37
2023/10/15 05:10:16;;;;;;;14.70;6.90;;;;;;;13.63;79.04;98544.45;106903;1262;61675;-37
2023/10/15 05:12:43;;;;;;;12.90;6.30;;;;;;;13.59;78.90;98544.95;106898;1261;60047;-37
2023/10/15 05:15:13;;;;;;;12.10;6.90;;;;;;;13.58;78.97;98547.84;107235;1256;71866;-37
2023/10/15 05:17:42;;;;;;;14.70;7.40;;;;;;;13.52;79.19;98547.64;107235;1257;68085;-37
2023/10/15 05:20:13;;;;;;;14.00;8.10;;;;;;;13.46;79.64;98544.48;107216;1258;72702;-38
2023/10/15 05:22:40;;;;;;;14.80;7.60;;;;;;;13.41;79.78;98548.26;107229;1257;60380;-37
2023/10/15 05:25:17;;;;;;;17.60;6.60;;;;;;;13.41;79.76;98550.27;107242;1256;59632;-37
2023/10/15 05:27:45;;;;;;;15.50;7.60;;;;;;;13.42;79.91;98554.69;107265;1256;73030;-37
2023/10/15 05:30:13;;;;;;;14.70;7.30;;;;;;;13.39;80.04;98555.02;107281;1256;66277;-37
2023/10/15 05:32:40;;;;;;;16.30;7.70;;;;;;;13.35;80.26;98556.52;107300;1257;71176;-37
2023/10/15 05:35:08;;;;;;;15.00;7.10;;;;;;;13.33;80.48;98563.84;107231;1258;60395;-37
2023/10/15 05:37:42;;;;;;;15.10;6.60;;;;;;;13.39;80.32;98563.89;107259;1255;60016;-37
2023/10/15 05:40:12;;;;;;;11.90;7.60;;;;;;;13.46;80.04;98565.09;107254;1256;73059;-37
2023/10/15 05:42:41;;;;;;;;;;;;;;;13.47;79.78;98563.85;107312;1256;68256;-37
2023/10/15 05:45:09;;;;;;;17.30;8.40;;;;;;;13.47;79.82;98560.11;107294;1256;72673;-37
2023/10/15 05:47:37;;;;;;;15.20;8.20;;;;;;;13.48;79.50;98557.94;107228;1260;59613;-37
2023/10/15 05:50:06;;;;;;;12.70;7.60;;;;;;;13.57;79.32;98560.14;107256;1256;59339;-37
2023/10/15 05:52:33;;;;;;;18.70;8.60;;;;;;;13.69;79.15;98561.39;107284;1256;71830;-37
2023/10/15 05:55:02;;;;;;;18.50;8.50;;;;;;;13.75;78.98;98570.45;107262;1261;67882;-37
2023/10/15 05:57:29;;;;;;;19.10;10.30;;;;;;;13.81;79.10;98571.04;107233;1256;72657;-38
2023/10/15 05:59:57;;;;;;;17.60;8.60;;;;;;;13.87;78.90;98579.09;107245;1257;60457;-37
2023/10/15 06:02:24;;;;;;;16.10;8.20;;;;;;;13.99;78.68;98582.50;107262;1256;60047;-37
2023/10/15 06:04:52;;;;;;;19.20;9.40;;;;;;;14.10;78.40;98593.17;107261;1257;73039;-37
2023/10/15 06:07:20;;;;;;;22.90;10.50;;;;;;;14.13;78.27;98600.00;107242;1256;66953;-37
2023/10/15 06:09:50;;;;;;;22.80;10.40;;;;;;;14.15;78.21;98597.48;107252;1257;72721;-37
2023/10/15 06:12:17;;;;;;;18.00;9.80;;;;;;;14.17;78.00;98599.35;107217;1256;61724;-37
2023/10/15 06:14:46;;;;;;;18.80;8.80;;;;;;;14.27;77.72;98596.39;107240;1256;60040;-37
2023/10/15 06:17:14;;;;;;;15.70;9.30;;;;;;;14.38;77.24;98600.52;107210;1257;73112;-37
2023/10/15 06:19:42;;;;;;;16.10;10.20;;;;;;;14.39;76.88;98602.23;107234;1256;67545;-37
2023/10/15 06:22:10;;;;;;;16.50;10.20;;;;;;;14.37;76.98;98602.10;107183;1258;72678;-37
2023/10/15 06:24:37;;;;;;;14.70;8.20;;;;;;;14.39;77.06;98598.51;107245;1257;60413;-37
2023/10/15 06:27:05;;;;;;;15.90;8.80;;;;;;;14.44;76.69;98598.92;107238;1256;59321;-37
2023/10/15 06:29:33;;;;;;;20.00;9.50;;;;;;;14.48;76.51;98601.30;107228;1256;72297;-37
2023/10/15 06:32:01;;;;;;;16.40;9.40;;;;;;;14.49;76.39;98605.64;107239;1256;67881;-37
2023/10/15 06:34:28;;;;;;;17.70;9.40;;;;;;;14.47;76.41;98607.79;107206;1257;72657;-37
2023/10/15 06:36:56;;;;;;;17.60;9.60;;;;;;;14.44;76.38;98611.06;107196;1259;61293;-37
2023/10/15 06:39:26;;;;;;;16.30;8.70;;;;;;;14.48;76.22;98605.59;107200;1256;59761;-37
2023/10/15 06:41:53;;;;;;;16.50;8.90;;;;;;;14.53;76.24;98599.77;107252;1256;71743;-37
2023/10/15 06:44:21;;;;;;;15.90;9.20;;;;;;;14.55;76.31;98598.20;107224;1256;66312;-37
2023/10/15 06:46:49;;;;;;;17.80;9.40;;;;;;;14.57;76.52;98598.10;107198;1260;71667;-36
2023/10/15 06:49:18;;;;;;;19.40;8.90;;;;;;;14.59;76.29;98603.14;107182;1256;61687;-36
2023/10/15 06:51:46;;;;;;;17.70;8.20;;;;;;;14.61;75.97;98603.27;107248;1256;60087;-37
2023/10/15 06:54:13;;;;;;;14.40;8.80;;;;;;;14.64;75.98;98600.76;107287;1256;71872;-37
2023/10/15 06:56:41;;;;;;;15.40;9.50;;;;;;;14.64;76.05;98597.25;107226;1256;67878;-37
2023/10/15 06:59:10;;;;;;;17.00;9.30;;;;;;;14.64;76.34;98599.11;107282;1256;73151;-37
2023/10/15 07:01:38;;;;;;;14.40;8.70;;;;;;;14.67;76.38;98601.89;107231;1256;61808;-37
2023/10/15 07:04:07;;;;;;;16.20;8.00;;;;;;;14.76;76.15;98602.67;107230;1256;59645;-37
2023/10/15 07:06:35;;;;;;;17.10;8.00;;;;;;;14.85;76.15;98601.56;107230;1256;71079;-37
2023/10/15 07:09:02;;;;;;;12.00;8.00;;;;;;;14.91;76.37;98609.13;107195;1256;66818;-37
2023/10/15 07:11:30;;;;;;;13.10;8.20;;;;;;;14.95;76.34;98611.68;107287;1256;71815;-37
2023/10/15 07:13:57;;;;;;;12.60;7.40;;;;;;;14.98;76.37;98616.77;107205;1256;60750;-37
2023/10/15 07:16:25;;;;;;;15.50;7.80;;;;;;;15.05;76.19;98611.80;107263;1256;60442;-37
2023/10/15 07:18:53;;;;;;;11.10;7.90;;;;;;;15.17;75.90;98618.30;107241;1256;73645;-37
2023/10/15 07:21:20;;;;;;;14.50;7.70;;;;;;;15.21;75.92;98613.47;107260;1256;65979;-37
2023/10/15 07:23:51;;;;;;;12.90;7.70;;;;;;;15.22;75.89;98606.20;107219;1260;71475;-37
2023/10/15 07:26:18;;;;;;;13.30;7.60;;;;;;;15.26;76.15;98600.01;107262;1256;61692;-37
2023/10/15 07:28:46;;;;;;;14.40;6.50;;;;;;;15.38;75.95;98606.34;107226;1261;60282;-37
2023/10/15 07:31:14;;;;;;;11.10;6.80;;;;;;;15.46;75.50;98607.31;107207;1256;74905;-37
2023/10/15 07:33:42;;;;;;;10.80;7.60;;;;;;;15.49;75.31;98611.04;107234;1256;67560;-37
2023/10/15 07:36:10;;;;;;;14.20;8.00;;;;;;;15.47;75.33;98617.23;107209;1256;72125;-37
2023/10/15 07:38:38;;;;;;;12.30;8.00;;;;;;;15.47;75.36;98615.04;107206;1262;60510;-37
2023/10/15 07:41:06;;;;;;;11.80;7.50;;;;;;;15.54;75.33;98615.29;107232;1256;60357;-38
2023/10/15 07:43:33;;;;;;;13.70;8.00;;;;;;;15.62;75.20;98613.85;107192;1256;73976;-38
2023/10/15 07:46:01;;;;;;;12.80;8.00;;;;;;;15.67;75.22;98612.94;107258;1256;66256;-37
2023/10/15 07:48:29;;;;;;;15.50;8.30;;;;;;;15.68;75.31;98615.56;107221;1259;72655;-37
2023/10/15 07:50:56;;;;;;;11.00;7.90;;;;;;;15.72;75.44;98619.89;107203;1261;60058;-37
2023/10/15 07:53:23;;;;;;;12.80;7.40;;;;;;;15.75;75.01;98624.54;107219;1256;60072;-37
2023/10/15 07:55:51;;;;;;;15.70;7.80;;;;;;;15.81;74.72;98629.76;107207;1260;73912;-37
2023/10/15 07:58:21;;;;;;;13.80;8.00;;;;;;;15.82;74.58;98624.73;107251;1256;67682;-38
2023/10/15 08:00:50;;;;;;;;;;;;;;;15.78;74.52;98624.08;107234;1256;72692;-37
2023/10/15 08:03:37;;;;;;;15.20;7.60;;;;;;;15.72;74.38;98623.95;107226;1256;60314;-37
2023/10/15 08:06:07;;;;;;;12.70;7.70;;;;;;;15.67;74.58;98626.60;107235;1257;60270;-37
2023/10/15 08:08:35;;;;;;;11.30;7.00;;;;;;;15.68;74.36;98632.38;107267;1256;74135;-37
2023/10/15 08:11:02;;;;;;;12.40;7.70;;;;;;;15.68;74.48;98633.62;107252;1256;67785;-37
2023/10/15 08:13:30;;;;;;;13.00;7.70;;;;;;;15.65;74.65;98639.88;107201;1256;72664;-37
2023/10/15 08:15:58;;;;;;;10.30;7.80;;;;;;;15.59;74.95;98640.27;107214;1256;60374;-37
2023/10/15 08:18:26;;;;;;;14.20;8.90;;;;;;;15.51;75.21;98641.38;107225;1256;60847;-37
2023/10/15 08:20:54;;;;;;;11.80;7.90;;;;;;;15.48;75.52;98639.54;107199;1255;73796;-37
2023/10/15 08:23:22;;;;;;;17.10;8.70;;;;;;;15.44;75.79;98639.65;107238;1257;66610;-37
2023/10/15 08:25:50;;;;;;;11.50;8.60;;;;;;;15.38;76.07;98642.00;107198;1256;72705;-37
2023/10/15 08:28:18;;;;;;;14.40;9.20;;;;;;;15.33;76.37;98650.09;107202;1256;60511;-37
2023/10/15 08:30:45;;;;;;;11.90;8.30;;;;;;;15.29;76.76;98653.96;107214;1256;59248;-37
2023/10/15 08:33:13;;;;;;;13.00;8.00;;;;;;;15.31;76.95;98657.45;107263;1256;74452;-37
2023/10/15 08:35:40;;;;;;;16.30;9.20;;;;;;;15.33;76.88;98660.55;107204;1256;66465;-37
2023/10/15 08:38:10;;;;;;;12.40;9.10;;;;;;;15.32;77.18;98662.81;107247;1256;72722;-37
2023/10/15 08:40:41;;;;;;;14.50;9.80;;;;;;;15.29;77.37;98666.36;107219;1256;60314;-37
2023/10/15 08:43:15;;;;;;;15.20;8.80;;;;;;;15.24;77.67;98669.94;107226;1256;60531;-37
2023/10/15 08:45:45;;;;;;;15.00;8.40;;;;;;;15.26;77.75;98666.17;107103;1256;73891;-37
2023/10/15 08:48:15;;;;;;;;;;;;;;;15.29;77.92;98672.70;107245;1256;67607;-37
2023/10/15 08:50:43;;;;;;;11.60;8.10;;;;;;;15.25;78.11;98674.13;107255;1256;72690;-37
2023/10/15 08:53:11;;;;;;;12.50;8.20;;;;;;;15.21;78.46;98666.45;107064;1256;60268;-37
2023/10/15 08:55:39;;;;;;;9.20;6.90;;;;;;;15.21;78.78;98671.05;107254;1256;60347;-37
2023/10/15 08:58:07;;;;;;;10.70;6.60;;;;;;;15.31;78.58;98669.70;107193;1256;73846;-37
2023/10/15 09:00:38;;;;;;;11.90;6.90;;;;;;;15.37;78.07;98677.98;107219;1256;67744;-37
2023/10/15 09:03:07;;;;;;;11.30;6.60;;;;;;;15.35;77.88;98678.00;107213;1256;72720;-37
2023/10/15 09:05:37;;;;;;;11.10;7.20;;;;;;;15.31;77.76;98675.48;107232;1258;60463;-37
2023/10/15 09:08:08;;;;;;;8.50;5.20;;;;;;;15.27;77.86;98673.64;107245;1256;61259;-37
2023/10/15 09:10:40;;;;;;;9.40;5.20;;;;;;;15.30;77.54;98667.54;107263;1256;73905;-37
2023/10/15 09:13:15;;;;;;;9.90;5.70;;;;;;;15.30;77.32;98673.30;107302;1256;68276;-37
2023/10/15 09:15:48;;;;;;;8.50;5.80;;;;;;;15.27;77.66;98673.88;107216;1256;72741;-37
2023/10/15 09:18:16;;;;;;;8.90;6.20;;;;;;;15.22;77.60;98675.89;107268;1256;59542;-37
2023/10/15 09:20:47;;;;;;;7.40;4.50;;;;;;;15.17;77.82;98684.13;107116;1256;60293;-37
2023/10/15 09:23:15;;;;;;;8.40;5.10;;;;;;;15.18;77.59;98687.01;107177;1260;73847;-37
2023/10/15 09:25:43;;;;;;;8.60;5.40;;;;;;;15.17;77.61;98694.11;107211;1256;67571;-37
2023/10/15 09:28:11;;;;;;;7.80;5.10;;;;;;;15.12;77.84;98693.84;107100;1259;72718;-38
2023/10/15 09:30:38;;;;;;;7.00;5.50;;;;;;;15.06;78.04;98692.82;107068;1259;60320;-37
2023/10/15 09:33:12;;;;;;;6.30;4.20;;;;;;;15.03;78.23;98698.23;107104;1257;60432;-37
2023/10/15 09:35:41;;;;;;;6.80;3.50;;;;;;;15.07;77.61;98698.52;107058;1259;73885;-37
2023/10/15 09:38:14;;;;;;;5.70;3.10;;;;;;;15.11;77.14;98695.17;107089;1259;67896;-37
2023/10/15 09:40:45;;;;;;;5.40;3.10;;;;;;;15.12;76.80;98698.99;107123;1259;71412;-37
2023/10/15 09:43:13;;;;;;;4.10;2.90;;;;;;;15.10;76.82;98703.16;107082;1258;60209;-37
2023/10/15 09:45:42;;;;;;;5.60;3.20;;;;;;;15.10;77.01;98703.23;107129;1257;60033;-37
2023/10/15 09:48:09;;;;;;;4.40;2.40;;;;;;;15.14;76.69;98701.88;107087;1257;73916;-37
2023/10/15 09:50:41;;;;;;;3.90;2.70;;;;;;;15.16;76.62;98705.35;107116;1257;67604;-37
2023/10/15 09:53:09;;;;;;;4.50;3.00;;;;;;;15.16;76.68;98703.01;107084;1260;72677;-37
2023/10/15 09:55:38;;;;;;;4.30;2.90;;;;;;;15.15;76.84;98702.17;107127;1261;60562;-37
2023/10/15 09:58:09;;;;;;;2.60;2.00;;;;;;;15.15;76.27;98703.56;107131;1259;60169;-37
2023/10/15 10:03:48;;;;;;;4.20;2.50;;;;;;;15.15;74.56;98705.36;107109;1258;67593;-37
2023/10/15 10:06:53;;;;;;;4.60;2.70;;;;;;;15.10;74.59;98707.44;107097;1259;72722;-37
2023/10/15 10:09:38;;;;;;;4.10;2.40;;;;;;;15.00;74.75;98710.58;107069;1259;60567;-37
2023/10/15 10:12:13;;;;;;;5.30;2.30;;;;;;;14.96;74.96;98705.46;107075;1259;60382;-37
2023/10/15 10:15:00;;;;;;;3.80;2.70;;;;;;;15.00;74.66;98706.52;107075;1262;72660;-37
2023/10/15 10:17:28;;;;;;;3.80;2.40;;;;;;;15.01;74.50;98701.61;107077;1259;66882;-37
2023/10/15 10:19:56;;;;;;;4.00;2.80;;;;;;;14.99;74.76;98700.92;107047;1258;72699;-37
2023/10/15 10:22:27;;;;;;;3.40;2.70;;;;;;;14.98;75.16;98701.16;107034;1260;60442;-37
2023/10/15 10:24:58;;;;;;;4.30;2.30;;;;;;;14.96;75.01;98702.36;107063;1259;60324;-38
2023/10/15 10:27:26;;;;;;;3.70;2.20;;;;;;;14.94;74.82;98699.48;107098;1262;73146;-37
2023/10/15 10:29:54;;;;;;;3.90;2.20;;;;;;;14.91;74.62;98700.77;107121;1257;66855;-37
2023/10/15 10:32:22;;;;;;;4.00;2.20;;;;;;;14.83;74.93;98705.59;107422;1253;72737;-37
2023/10/15 10:35:45;;;;;;;4.40;2.40;;;;;;;14.73;75.24;98707.93;107397;1258;60540;-37
2023/10/15 10:38:17;;;;;;;5.10;3.10;;;;;;;14.63;75.71;98704.80;107031;1259;60442;-38
2023/10/15 10:40:48;;;;;;;5.70;3.50;;;;;;;14.65;76.15;98705.42;107079;1259;72772;-37
2023/10/15 10:43:17;;;;;;;4.70;2.80;;;;;;;14.67;76.03;98708.67;107183;1253;68287;-37
2023/10/15 10:45:52;;;;;;;3.70;2.50;;;;;;;14.65;76.17;98706.98;107366;1253;72667;-38
2023/10/15 10:48:24;;;;;;;4.10;2.40;;;;;;;14.58;76.11;98712.10;107356;1254;60293;-37
2023/10/15 10:51:07;;;;;;;3.60;2.10;;;;;;;14.51;76.62;98710.06;107376;1253;59715;-37
2023/10/15 10:53:35;;;;;;;2.40;1.70;;;;;;;14.51;76.81;98712.88;107401;1258;72997;-37
2023/10/15 10:56:07;;;;;;;2.40;2.00;;;;;;;14.50;76.85;98714.83;107392;1253;66305;-37
2023/10/15 10:58:37;;;;;;;3.10;2.20;;;;;;;14.44;77.08;98718.29;107402;1258;71345;-37
2023/10/15 11:01:06;;;;;;;2.30;1.70;;;;;;;14.38;77.33;98728.07;107359;1253;59251;-37
2023/10/15 11:03:34;;;;;;;4.10;1.80;;;;;;;14.31;75.73;98731.36;107377;1254;60042;-37
2023/10/15 11:06:02;;;;;;;5.40;1.60;;;;;;;14.25;73.72;98731.86;107397;1253;73886;-37
2023/10/15 11:08:29;;;;;;;4.40;1.70;;;;;;;14.14;72.37;98726.63;107391;1253;67939;-37
2023/10/15 11:10:59;;;;;;;5.20;1.90;;;;;;;14.03;72.15;98727.63;107402;1257;72702;-37
2023/10/15 11:13:27;;;;;;;4.60;1.60;;;;;;;13.95;71.86;98723.00;107370;1258;60429;-37
2023/10/15 11:15:55;;;;;;;6.60;1.80;;;;;;;13.86;71.55;98721.39;107361;1255;60451;-37
2023/10/15 11:18:23;;;;;;;3.40;1.70;;;;;;;13.84;71.41;98723.91;107386;1253;72537;-37
2023/10/15 11:20:52;;;;;;;4.90;1.50;;;;;;;13.86;71.49;98715.02;107410;1253;67989;-37
2023/10/15 11:23:23;;;;;;;4.80;1.40;;;;;;;13.83;71.49;98712.54;107391;1253;71730;-37
2023/10/15 11:25:54;;;;;;;6.50;2.00;;;;;;;13.78;71.53;98717.78;107401;1254;60440;-37
2023/10/15 11:28:22;;;;;;;2.60;1.50;;;;;;;13.76;71.46;98715.45;107440;1253;60423;-37
2023/10/15 11:30:50;;;;;;;5.00;1.80;;;;;;;13.73;71.44;98718.27;107383;1258;72423;-37
2023/10/15 11:33:18;;;;;;;4.60;1.70;;;;;;;13.73;71.49;98715.15;107472;1254;67032;-37
2023/10/15 11:35:48;;;;;;;5.80;2.20;;;;;;;13.74;71.30;98716.17;107391;1258;72693;-37
2023/10/15 11:38:15;;;;;;;5.70;1.90;;;;;;;13.70;71.45;98715.25;107406;1253;60404;-37
2023/10/15 11:40:45;;;;;;;4.60;1.80;;;;;;;13.65;71.70;98716.11;107423;1253;60144;-37
2023/10/15 11:43:17;;;;;;;7.10;2.20;;;;;;;13.63;71.77;98718.08;107328;1254;73872;-37
2023/10/15 11:45:47;;;;;;;4.90;2.30;;;;;;;13.59;71.64;98715.77;107429;1253;67599;-37
2023/10/15 11:48:21;;;;;;;4.80;1.90;;;;;;;13.64;71.66;98718.54;107389;1258;71554;-37
2023/10/15 11:50:49;;;;;;;7.80;2.80;;;;;;;13.68;71.38;98720.69;107195;1253;60307;-37
2023/10/15 11:53:20;;;;;;;5.80;2.40;;;;;;;13.67;71.24;98724.36;107456;1259;60423;-37
2023/10/15 11:55:48;;;;;;;6.10;2.40;;;;;;;13.64;70.92;98733.02;107451;1258;73911;-37
2023/10/15 11:58:16;;;;;;;6.20;2.40;;;;;;;13.60;70.92;98732.02;107150;1254;67702;-37
2023/10/15 12:00:47;;;;;;;6.30;2.40;;;;;;;13.57;71.08;98728.67;107378;1253;72703;-37
2023/10/15 12:03:16;;;;;;;5.30;2.30;;;;;;;13.58;70.79;98724.16;107374;1259;61718;-37